sensor_id;sensor_type;location;lat;lon;timestamp;pressure;altitude;pressure_sealevel;temperature;humidity
62725;BME280;49026;52.600;4.694;2023-05-12T00:00:38;101856.34;;;10.45;82.17
62725;BME280;49026;52.600;4.694;2023-05-12T00:03:03;101858.09;;;10.46;82.00
62725;BME280;49026;52.600;4.694;2023-05-12T00:05:31;101859.78;;;10.47;82.33
62725;BME280;49026;52.600;4.694;2023-05-12T00:07:59;101861.53;;;10.48;82.15
62725;BME280;49026;52.600;4.694;2023-05-12T00:10:26;101864.13;;;10.49;82.07
62725;BME280;49026;52.600;4.694;2023-05-12T00:12:52;101852.72;;;10.49;82.07
62725;BME280;49026;52.600;4.694;2023-05-12T00:15:21;101856.22;;;10.51;82.30
62725;BME280;49026;52.600;4.694;2023-05-12T00:17:47;101851.84;;;10.50;82.84
62725;BME280;49026;52.600;4.694;2023-05-12T00:20:12;101855.25;;;10.53;82.20
62725;BME280;49026;52.600;4.694;2023-05-12T00:22:38;101860.53;;;10.53;82.34
62725;BME280;49026;52.600;4.694;2023-05-12T00:25:04;101864.00;;;10.54;82.33
62725;BME280;49026;52.600;4.694;2023-05-12T00:27:29;101864.88;;;10.54;82.44
62725;BME280;49026;52.600;4.694;2023-05-12T00:29:56;101859.63;;;10.54;82.18
62725;BME280;49026;52.600;4.694;2023-05-12T00:32:25;101860.44;;;10.56;82.20
62725;BME280;49026;52.600;4.694;2023-05-12T00:34:52;101858.72;;;10.55;82.70
62725;BME280;49026;52.600;4.694;2023-05-12T00:37:18;101865.72;;;10.56;82.53
62725;BME280;49026;52.600;4.694;2023-05-12T00:39:46;101856.03;;;10.57;82.51
62725;BME280;49026;52.600;4.694;2023-05-12T00:42:13;101860.41;;;10.58;82.79
62725;BME280;49026;52.600;4.694;2023-05-12T00:44:39;101849.84;;;10.61;82.62
62725;BME280;49026;52.600;4.694;2023-05-12T00:47:04;101854.16;;;10.62;83.07
62725;BME280;49026;52.600;4.694;2023-05-12T00:49:30;101860.31;;;10.63;83.64
62725;BME280;49026;52.600;4.694;2023-05-12T00:51:57;101860.28;;;10.64;82.96
62725;BME280;49026;52.600;4.694;2023-05-12T00:54:25;101861.13;;;10.65;82.92
62725;BME280;49026;52.600;4.694;2023-05-12T00:56:51;101857.66;;;10.64;82.71
62725;BME280;49026;52.600;4.694;2023-05-12T00:59:16;101852.41;;;10.64;82.94
62725;BME280;49026;52.600;4.694;2023-05-12T01:01:42;101855.91;;;10.63;83.18
62725;BME280;49026;52.600;4.694;2023-05-12T01:04:07;101848.91;;;10.62;83.12
62725;BME280;49026;52.600;4.694;2023-05-12T01:06:47;101852.47;;;10.61;84.06
62725;BME280;49026;52.600;4.694;2023-05-12T01:09:13;101849.88;;;10.60;85.00
62725;BME280;49026;52.600;4.694;2023-05-12T01:11:39;101843.72;;;10.59;83.92
62725;BME280;49026;52.600;4.694;2023-05-12T01:14:07;101843.78;;;10.57;83.42
62725;BME280;49026;52.600;4.694;2023-05-12T01:16:38;101847.34;;;10.55;83.02
62725;BME280;49026;52.600;4.694;2023-05-12T01:19:06;101835.09;;;10.54;83.19
62725;BME280;49026;52.600;4.694;2023-05-12T01:21:34;101836.03;;;10.51;83.47
62725;BME280;49026;52.600;4.694;2023-05-12T01:24:03;101836.94;;;10.50;83.54
62725;BME280;49026;52.600;4.694;2023-05-12T01:26:30;101829.09;;;10.49;83.31
62725;BME280;49026;52.600;4.694;2023-05-12T01:28:59;101829.13;;;10.47;82.94
62725;BME280;49026;52.600;4.694;2023-05-12T01:31:27;101828.34;;;10.44;83.52
62725;BME280;49026;52.600;4.694;2023-05-12T01:33:53;101834.53;;;10.41;83.19
62725;BME280;49026;52.600;4.694;2023-05-12T01:36:18;101834.59;;;10.38;83.13
62725;BME280;49026;52.600;4.694;2023-05-12T01:38:45;101830.28;;;10.35;82.85
62725;BME280;49026;52.600;4.694;2023-05-12T01:41:11;101829.44;;;10.33;82.60
62725;BME280;49026;52.600;4.694;2023-05-12T01:43:36;101823.34;;;10.31;82.57
62725;BME280;49026;52.600;4.694;2023-05-12T01:46:01;101821.63;;;10.29;82.72
62725;BME280;49026;52.600;4.694;2023-05-12T01:48:26;101832.25;;;10.26;82.88
62725;BME280;49026;52.600;4.694;2023-05-12T01:50:52;101830.53;;;10.23;82.25
62725;BME280;49026;52.600;4.694;2023-05-12T01:53:17;101827.06;;;10.23;82.36
62725;BME280;49026;52.600;4.694;2023-05-12T01:55:42;101829.69;;;10.23;82.47
62725;BME280;49026;52.600;4.694;2023-05-12T01:58:11;101828.81;;;10.22;82.40
62725;BME280;49026;52.600;4.694;2023-05-12T02:00:36;101834.97;;;10.21;82.21
62725;BME280;49026;52.600;4.694;2023-05-12T02:03:03;101832.34;;;10.21;82.60
62725;BME280;49026;52.600;4.694;2023-05-12T02:05:29;101825.34;;;10.20;82.57
62725;BME280;49026;52.600;4.694;2023-05-12T02:07:54;101830.59;;;10.20;82.39
62725;BME280;49026;52.600;4.694;2023-05-12T02:10:22;101827.09;;;10.21;82.24
62725;BME280;49026;52.600;4.694;2023-05-12T02:12:49;101829.72;;;10.21;82.36
62725;BME280;49026;52.600;4.694;2023-05-12T02:15:14;101821.84;;;10.21;82.65
62725;BME280;49026;52.600;4.694;2023-05-12T02:17:42;101830.59;;;10.20;82.56
62725;BME280;49026;52.600;4.694;2023-05-12T02:20:10;101826.19;;;10.20;82.42
62725;BME280;49026;52.600;4.694;2023-05-12T02:22:36;101822.75;;;10.18;82.59
62725;BME280;49026;52.600;4.694;2023-05-12T02:25:01;101829.78;;;10.18;83.04
62725;BME280;49026;52.600;4.694;2023-05-12T02:27:27;101816.72;;;10.15;82.88
62725;BME280;49026;52.600;4.694;2023-05-12T02:29:52;101830.72;;;10.14;82.76
62725;BME280;49026;52.600;4.694;2023-05-12T02:32:18;101819.44;;;10.10;82.95
62725;BME280;49026;52.600;4.694;2023-05-12T02:34:43;101821.28;;;10.07;82.94
62725;BME280;49026;52.600;4.694;2023-05-12T02:37:12;101810.88;;;10.02;83.12
62725;BME280;49026;52.600;4.694;2023-05-12T02:39:40;101808.38;;;9.97;83.06
62725;BME280;49026;52.600;4.694;2023-05-12T02:42:08;101804.88;;;9.95;82.60
62725;BME280;49026;52.600;4.694;2023-05-12T02:44:33;101806.75;;;9.90;83.03
62725;BME280;49026;52.600;4.694;2023-05-12T02:46:58;101807.72;;;9.86;83.80
62725;BME280;49026;52.600;4.694;2023-05-12T02:49:23;101804.31;;;9.82;83.48
62725;BME280;49026;52.600;4.694;2023-05-12T02:51:49;101803.53;;;9.79;83.48
62725;BME280;49026;52.600;4.694;2023-05-12T02:54:17;101808.75;;;9.79;83.27
62725;BME280;49026;52.600;4.694;2023-05-12T02:56:42;101801.78;;;9.78;83.50
62725;BME280;49026;52.600;4.694;2023-05-12T02:59:10;101801.78;;;9.78;83.30
62725;BME280;49026;52.600;4.694;2023-05-12T03:01:36;101803.56;;;9.76;83.21
62725;BME280;49026;52.600;4.694;2023-05-12T03:04:01;101795.72;;;9.74;83.52
62725;BME280;49026;52.600;4.694;2023-05-12T03:06:26;101798.41;;;9.71;83.57
62725;BME280;49026;52.600;4.694;2023-05-12T03:08:52;101787.94;;;9.70;83.67
62725;BME280;49026;52.600;4.694;2023-05-12T03:11:19;101789.75;;;9.68;83.79
62725;BME280;49026;52.600;4.694;2023-05-12T03:13:47;101801.13;;;9.67;83.75
62725;BME280;49026;52.600;4.694;2023-05-12T03:16:15;101798.53;;;9.65;83.92
62725;BME280;49026;52.600;4.694;2023-05-12T03:18:41;101802.94;;;9.64;83.98
62725;BME280;49026;52.600;4.694;2023-05-12T03:21:07;101798.56;;;9.63;83.68
62725;BME280;49026;52.600;4.694;2023-05-12T03:23:32;101803.81;;;9.63;83.93
62725;BME280;49026;52.600;4.694;2023-05-12T03:26:00;101795.94;;;9.63;84.55
62725;BME280;49026;52.600;4.694;2023-05-12T03:28:25;101798.53;;;9.65;85.40
62725;BME280;49026;52.600;4.694;2023-05-12T03:30:51;101790.66;;;9.65;85.07
62725;BME280;49026;52.600;4.694;2023-05-12T03:33:18;101791.50;;;9.67;84.67
62725;BME280;49026;52.600;4.694;2023-05-12T03:35:44;101789.75;;;9.68;84.72
62725;BME280;49026;52.600;4.694;2023-05-12T03:38:09;101797.63;;;9.68;84.84
62725;BME280;49026;52.600;4.694;2023-05-12T03:40:35;101798.44;;;9.70;83.98
62725;BME280;49026;52.600;4.694;2023-05-12T03:43:00;101794.94;;;9.71;83.50
62725;BME280;49026;52.600;4.694;2023-05-12T03:45:26;101790.50;;;9.73;84.41
62725;BME280;49026;52.600;4.694;2023-05-12T03:47:51;101793.13;;;9.73;83.90
62725;BME280;49026;52.600;4.694;2023-05-12T03:50:19;101796.59;;;9.75;83.81
62725;BME280;49026;52.600;4.694;2023-05-12T03:52:44;101799.22;;;9.75;83.99
62725;BME280;49026;52.600;4.694;2023-05-12T03:55:10;101798.31;;;9.76;84.28
62725;BME280;49026;52.600;4.694;2023-05-12T03:57:37;101798.31;;;9.76;84.35
62725;BME280;49026;52.600;4.694;2023-05-12T04:00:04;101798.31;;;9.76;83.95
62725;BME280;49026;52.600;4.694;2023-05-12T04:02:29;101801.78;;;9.78;83.96
62725;BME280;49026;52.600;4.694;2023-05-12T04:04:54;101801.78;;;9.78;84.55
62725;BME280;49026;52.600;4.694;2023-05-12T04:07:20;101798.28;;;9.79;85.39
62725;BME280;49026;52.600;4.694;2023-05-12T04:09:45;101806.97;;;9.81;85.09
62725;BME280;49026;52.600;4.694;2023-05-12T04:12:11;101807.78;;;9.83;84.64
62725;BME280;49026;52.600;4.694;2023-05-12T04:14:36;101805.97;;;9.87;84.71
62725;BME280;49026;52.600;4.694;2023-05-12T04:17:03;101809.38;;;9.90;84.22
62725;BME280;49026;52.600;4.694;2023-05-12T04:19:28;101802.34;;;9.92;84.56
62725;BME280;49026;52.600;4.694;2023-05-12T04:21:54;101804.88;;;9.95;84.00
62725;BME280;49026;52.600;4.694;2023-05-12T04:24:19;101796.06;;;9.99;84.46
62725;BME280;49026;52.600;4.694;2023-05-12T04:26:44;101795.06;;;10.04;84.22
62725;BME280;49026;52.600;4.694;2023-05-12T04:29:09;101797.63;;;10.07;83.90
62725;BME280;49026;52.600;4.694;2023-05-12T04:31:35;101792.31;;;10.10;83.64
62725;BME280;49026;52.600;4.694;2023-05-12T04:34:02;101804.47;;;10.14;83.93
62725;BME280;49026;52.600;4.694;2023-05-12T04:36:28;101805.28;;;10.17;84.35
62725;BME280;49026;52.600;4.694;2023-05-12T04:38:53;101797.31;;;10.20;84.03
62725;BME280;49026;52.600;4.694;2023-05-12T04:41:20;101801.59;;;10.25;84.42
62725;BME280;49026;52.600;4.694;2023-05-12T04:43:45;101790.09;;;10.30;84.75
62725;BME280;49026;52.600;4.694;2023-05-12T04:46:10;101798.75;;;10.35;85.33
62725;BME280;49026;52.600;4.694;2023-05-12T04:48:36;101797.75;;;10.41;85.12
62725;BME280;49026;52.600;4.694;2023-05-12T04:51:05;101802.00;;;10.47;84.79
62725;BME280;49026;52.600;4.694;2023-05-12T04:53:31;101804.47;;;10.53;85.25
62725;BME280;49026;52.600;4.694;2023-05-12T04:56:04;101800.84;;;10.57;85.32
62725;BME280;49026;52.600;4.694;2023-05-12T04:58:29;101811.22;;;10.63;85.08
62725;BME280;49026;52.600;4.694;2023-05-12T05:00:57;101823.38;;;10.67;84.67
62725;BME280;49026;52.600;4.694;2023-05-12T05:03:22;101817.16;;;10.71;85.03
62725;BME280;49026;52.600;4.694;2023-05-12T05:05:47;101824.06;;;10.75;85.08
62725;BME280;49026;52.600;4.694;2023-05-12T05:08:13;101825.75;;;10.78;85.29
62725;BME280;49026;52.600;4.694;2023-05-12T05:10:38;101823.91;;;10.82;85.70
62725;BME280;49026;52.600;4.694;2023-05-12T05:13:06;101827.34;;;10.84;85.60
62725;BME280;49026;52.600;4.694;2023-05-12T05:15:32;101833.38;;;10.87;85.61
62725;BME280;49026;52.600;4.694;2023-05-12T05:17:57;101830.72;;;10.89;85.30
62725;BME280;49026;52.600;4.694;2023-05-12T05:20:24;101828.94;;;10.91;86.24
62725;BME280;49026;52.600;4.694;2023-05-12T05:22:52;101828.94;;;10.91;86.63
62725;BME280;49026;52.600;4.694;2023-05-12T05:25:20;101842.97;;;10.90;88.13
62725;BME280;49026;52.600;4.694;2023-05-12T05:27:46;101833.34;;;10.89;87.02
62725;BME280;49026;52.600;4.694;2023-05-12T05:30:11;101826.34;;;10.89;87.89
62725;BME280;49026;52.600;4.694;2023-05-12T05:32:39;101839.50;;;10.89;87.10
62725;BME280;49026;52.600;4.694;2023-05-12T05:35:05;101831.63;;;10.89;90.28
62725;BME280;49026;52.600;4.694;2023-05-12T05:37:33;101841.25;;;10.89;89.67
62725;BME280;49026;52.600;4.694;2023-05-12T05:39:59;101842.97;;;10.90;89.82
62725;BME280;49026;52.600;4.694;2023-05-12T05:42:24;101830.69;;;10.90;89.62
62725;BME280;49026;52.600;4.694;2023-05-12T05:44:49;101837.72;;;10.90;90.13
62725;BME280;49026;52.600;4.694;2023-05-12T05:47:15;101842.91;;;10.93;90.10
62725;BME280;49026;52.600;4.694;2023-05-12T05:49:40;101840.28;;;10.93;89.83
62725;BME280;49026;52.600;4.694;2023-05-12T05:52:06;101847.28;;;10.92;92.17
62725;BME280;49026;52.600;4.694;2023-05-12T05:54:31;101854.31;;;10.92;94.45
62725;BME280;49026;52.600;4.694;2023-05-12T05:56:56;101844.78;;;10.88;93.32
62725;BME280;49026;52.600;4.694;2023-05-12T05:59:24;101856.16;;;10.88;93.49
62725;BME280;49026;52.600;4.694;2023-05-12T06:01:49;101865.84;;;10.88;93.31
62725;BME280;49026;52.600;4.694;2023-05-12T06:04:15;101862.28;;;10.89;91.68
62725;BME280;49026;52.600;4.694;2023-05-12T06:06:41;101855.25;;;10.91;93.06
62725;BME280;49026;52.600;4.694;2023-05-12T06:09:06;101868.44;;;10.89;94.36
62725;BME280;49026;52.600;4.694;2023-05-12T06:11:33;101877.25;;;10.87;93.89
62725;BME280;49026;52.600;4.694;2023-05-12T06:13:58;101874.59;;;10.87;93.17
62725;BME280;49026;52.600;4.694;2023-05-12T06:16:26;101877.16;;;10.90;93.91
62725;BME280;49026;52.600;4.694;2023-05-12T06:18:54;101881.44;;;10.94;94.96
62725;BME280;49026;52.600;4.694;2023-05-12T06:21:19;101883.13;;;10.97;94.85
62725;BME280;49026;52.600;4.694;2023-05-12T06:23:47;101883.91;;;11.00;94.61
62725;BME280;49026;52.600;4.694;2023-05-12T06:26:13;101886.44;;;11.05;94.79
62725;BME280;49026;52.600;4.694;2023-05-12T06:28:40;101878.50;;;11.06;94.01
62725;BME280;49026;52.600;4.694;2023-05-12T06:31:06;101881.78;;;11.16;92.63
62725;BME280;49026;52.600;4.694;2023-05-12T06:33:32;101888.63;;;11.22;91.52
62725;BME280;49026;52.600;4.694;2023-05-12T06:35:58;101881.53;;;11.25;91.79
62725;BME280;49026;52.600;4.694;2023-05-12T06:38:25;101881.47;;;11.27;91.03
62725;BME280;49026;52.600;4.694;2023-05-12T06:40:51;101900.72;;;11.29;91.12
62725;BME280;49026;52.600;4.694;2023-05-12T06:43:19;101898.00;;;11.32;91.95
62725;BME280;49026;52.600;4.694;2023-05-12T06:45:44;101898.78;;;11.36;91.90
62725;BME280;49026;52.600;4.694;2023-05-12T06:48:09;101903.84;;;11.43;92.44
62725;BME280;49026;52.600;4.694;2023-05-12T06:50:35;101915.94;;;11.50;91.40
62725;BME280;49026;52.600;4.694;2023-05-12T06:53:01;101922.78;;;11.58;90.73
62725;BME280;49026;52.600;4.694;2023-05-12T06:55:26;101922.81;;;11.56;90.09
62725;BME280;49026;52.600;4.694;2023-05-12T06:57:52;101920.31;;;11.52;92.01
62725;BME280;49026;52.600;4.694;2023-05-12T07:00:24;101928.28;;;11.48;92.28
62725;BME280;49026;52.600;4.694;2023-05-12T07:02:49;101927.38;;;11.49;91.20
62725;BME280;49026;52.600;4.694;2023-05-12T07:05:17;101933.44;;;11.53;91.98
62725;BME280;49026;52.600;4.694;2023-05-12T07:07:43;101927.13;;;11.59;92.11
62725;BME280;49026;52.600;4.694;2023-05-12T07:10:09;101930.50;;;11.64;91.39
62725;BME280;49026;52.600;4.694;2023-05-12T07:12:36;101927.72;;;11.70;89.71
62725;BME280;49026;52.600;4.694;2023-05-12T07:15:02;101929.34;;;11.74;89.45
62725;BME280;49026;52.600;4.694;2023-05-12T07:17:28;101934.59;;;11.74;89.97
62725;BME280;49026;52.600;4.694;2023-05-12T07:19:54;101930.19;;;11.76;89.79
62725;BME280;49026;52.600;4.694;2023-05-12T07:22:19;101931.88;;;11.77;89.63
62725;BME280;49026;52.600;4.694;2023-05-12T07:24:44;101930.19;;;11.76;90.21
62725;BME280;49026;52.600;4.694;2023-05-12T07:27:10;101921.34;;;11.77;90.11
62725;BME280;49026;52.600;4.694;2023-05-12T07:29:35;101922.97;;;11.83;90.61
62725;BME280;49026;52.600;4.694;2023-05-12T07:32:03;101924.50;;;11.92;90.46
62725;BME280;49026;52.600;4.694;2023-05-12T07:34:31;101927.03;;;11.96;89.61
62725;BME280;49026;52.600;4.694;2023-05-12T07:36:59;101939.94;;;12.04;90.10
62725;BME280;49026;52.600;4.694;2023-05-12T07:39:27;101936.25;;;12.11;89.85
62725;BME280;49026;52.600;4.694;2023-05-12T07:41:52;101931.38;;;12.27;90.09
62725;BME280;49026;52.600;4.694;2023-05-12T07:44:18;101936.47;;;12.33;89.58
62725;BME280;49026;52.600;4.694;2023-05-12T07:46:43;101931.00;;;12.39;89.56
62725;BME280;49026;52.600;4.694;2023-05-12T07:49:08;101938.50;;;12.53;88.71
62725;BME280;49026;52.600;4.694;2023-05-12T07:51:36;101934.56;;;12.67;88.28
62725;BME280;49026;52.600;4.694;2023-05-12T07:54:02;101943.28;;;12.69;88.19
62725;BME280;49026;52.600;4.694;2023-05-12T07:56:28;101949.47;;;12.68;88.66
62725;BME280;49026;52.600;4.694;2023-05-12T07:58:54;101947.53;;;12.73;88.43
62725;BME280;49026;52.600;4.694;2023-05-12T08:01:19;101950.75;;;12.83;88.86
62725;BME280;49026;52.600;4.694;2023-05-12T08:03:44;101946.06;;;12.92;88.65
62725;BME280;49026;52.600;4.694;2023-05-12T08:06:12;101948.47;;;13.00;88.54
62725;BME280;49026;52.600;4.694;2023-05-12T08:08:39;101944.75;;;13.06;88.59
62725;BME280;49026;52.600;4.694;2023-05-12T08:11:08;101948.69;;;13.19;88.30
62725;BME280;49026;52.600;4.694;2023-05-12T08:13:35;101949.03;;;13.37;88.09
62725;BME280;49026;52.600;4.694;2023-05-12T08:16:03;101950.22;;;13.53;87.99
62725;BME280;49026;52.600;4.694;2023-05-12T08:18:28;101946.19;;;13.68;88.05
62725;BME280;49026;52.600;4.694;2023-05-12T08:20:53;101941.47;;;13.76;87.75
62725;BME280;49026;52.600;4.694;2023-05-12T08:23:21;101943.00;;;13.83;88.37
62725;BME280;49026;52.600;4.694;2023-05-12T08:25:47;101947.31;;;13.86;87.62
62725;BME280;49026;52.600;4.694;2023-05-12T08:28:12;101950.06;;;13.83;88.23
62725;BME280;49026;52.600;4.694;2023-05-12T08:30:38;101963.03;;;13.89;88.33
62725;BME280;49026;52.600;4.694;2023-05-12T08:33:05;101962.88;;;13.94;87.84
62725;BME280;49026;52.600;4.694;2023-05-12T08:35:34;101956.66;;;13.95;87.93
62725;BME280;49026;52.600;4.694;2023-05-12T08:38:07;101961.69;;;14.02;88.36
62725;BME280;49026;52.600;4.694;2023-05-12T08:43:25;101970.59;;;14.23;88.10
62725;BME280;49026;52.600;4.694;2023-05-12T08:45:55;101967.81;;;14.26;87.77
62725;BME280;49026;52.600;4.694;2023-05-12T08:48:24;101962.16;;;14.37;87.57
62725;BME280;49026;52.600;4.694;2023-05-12T08:50:50;101954.59;;;14.50;88.54
62725;BME280;49026;52.600;4.694;2023-05-12T08:53:17;101960.75;;;14.74;88.77
62725;BME280;49026;52.600;4.694;2023-05-12T08:55:45;101960.72;;;14.96;89.04
62725;BME280;49026;52.600;4.694;2023-05-12T08:58:11;101970.91;;;15.07;85.73
62725;BME280;49026;52.600;4.694;2023-05-12T09:00:38;101966.22;;;14.92;85.04
62725;BME280;49026;52.600;4.694;2023-05-12T09:03:07;101976.88;;;14.90;86.47
62725;BME280;49026;52.600;4.694;2023-05-12T09:05:33;101974.50;;;15.05;86.98
62725;BME280;49026;52.600;4.694;2023-05-12T09:07:59;101973.22;;;15.15;86.41
62725;BME280;49026;52.600;4.694;2023-05-12T09:10:27;101974.34;;;15.30;86.32
62725;BME280;49026;52.600;4.694;2023-05-12T09:13:25;101979.47;;;15.55;87.87
62725;BME280;49026;52.600;4.694;2023-05-12T09:15:47;101965.25;;;15.78;87.67
62725;BME280;49026;52.600;4.694;2023-05-12T09:18:13;101977.47;;;15.82;84.68
62725;BME280;49026;52.600;4.694;2023-05-12T09:20:38;101982.34;;;15.91;84.83
62725;BME280;49026;52.600;4.694;2023-05-12T09:23:15;101989.06;;;15.99;84.42
62725;BME280;49026;52.600;4.694;2023-05-12T09:25:41;101978.72;;;16.13;82.98
62725;BME280;49026;52.600;4.694;2023-05-12T09:28:09;101981.56;;;16.29;83.88
62725;BME280;49026;52.600;4.694;2023-05-12T09:30:42;101986.00;;;16.47;83.48
62725;BME280;49026;52.600;4.694;2023-05-12T09:33:11;101977.16;;;16.66;85.32
62725;BME280;49026;52.600;4.694;2023-05-12T09:35:42;101982.72;;;16.79;82.79
62725;BME280;49026;52.600;4.694;2023-05-12T09:38:14;101983.09;;;16.90;83.99
62725;BME280;49026;52.600;4.694;2023-05-12T09:40:39;101991.56;;;16.98;85.00
62725;BME280;49026;52.600;4.694;2023-05-12T09:43:05;101984.09;;;17.07;84.04
62725;BME280;49026;52.600;4.694;2023-05-12T09:45:35;102002.53;;;17.27;84.56
62725;BME280;49026;52.600;4.694;2023-05-12T09:48:11;101995.28;;;17.48;84.86
62725;BME280;49026;52.600;4.694;2023-05-12T09:50:47;101999.75;;;17.48;81.04
62725;BME280;49026;52.600;4.694;2023-05-12T09:53:12;102001.00;;;17.58;84.96
62725;BME280;49026;52.600;4.694;2023-05-12T09:55:38;101992.91;;;17.77;83.03
62725;BME280;49026;52.600;4.694;2023-05-12T09:58:08;101998.94;;;17.81;85.00
62725;BME280;49026;52.600;4.694;2023-05-12T10:00:38;102002.09;;;17.89;83.84
62725;BME280;49026;52.600;4.694;2023-05-12T10:03:14;102003.31;;;17.82;83.88
62725;BME280;49026;52.600;4.694;2023-05-12T10:05:54;102001.84;;;17.76;82.93
62725;BME280;49026;52.600;4.694;2023-05-12T10:08:50;102005.22;;;17.80;82.15
62725;BME280;49026;52.600;4.694;2023-05-12T10:11:21;102012.88;;;18.03;84.80
62725;BME280;49026;52.600;4.694;2023-05-12T10:13:47;102008.81;;;18.29;82.37
62725;BME280;49026;52.600;4.694;2023-05-12T10:16:12;102010.13;;;18.38;80.13
62725;BME280;49026;52.600;4.694;2023-05-12T10:18:38;102008.31;;;18.39;79.87
62725;BME280;49026;52.600;4.694;2023-05-12T10:21:05;102016.75;;;18.63;83.71
62725;BME280;49026;52.600;4.694;2023-05-12T10:23:33;102015.88;;;18.78;81.49
62725;BME280;49026;52.600;4.694;2023-05-12T10:25:59;102020.91;;;18.84;78.34
62725;BME280;49026;52.600;4.694;2023-05-12T10:28:29;102008.19;;;18.90;78.28
62725;BME280;49026;52.600;4.694;2023-05-12T10:30:56;102010.06;;;18.87;77.31
62725;BME280;49026;52.600;4.694;2023-05-12T10:33:21;102013.31;;;19.09;81.99
62725;BME280;49026;52.600;4.694;2023-05-12T10:35:47;102015.41;;;19.34;79.05
62725;BME280;49026;52.600;4.694;2023-05-12T10:38:15;102018.91;;;19.50;78.70
62725;BME280;49026;52.600;4.694;2023-05-12T10:40:55;102012.50;;;19.53;78.47
62725;BME280;49026;52.600;4.694;2023-05-12T10:43:26;102010.81;;;19.52;78.81
62725;BME280;49026;52.600;4.694;2023-05-12T10:48:36;102008.31;;;19.79;77.41
62725;BME280;49026;52.600;4.694;2023-05-12T10:51:18;102005.28;;;19.85;78.95
62725;BME280;49026;52.600;4.694;2023-05-12T10:53:44;102008.97;;;19.83;78.25
62725;BME280;49026;52.600;4.694;2023-05-12T10:56:10;102002.81;;;19.96;82.63
62725;BME280;49026;52.600;4.694;2023-05-12T10:58:36;102007.41;;;20.23;83.14
62725;BME280;49026;52.600;4.694;2023-05-12T11:01:05;102002.22;;;20.49;79.13
62725;BME280;49026;52.600;4.694;2023-05-12T11:03:31;102007.84;;;20.59;80.59
62725;BME280;49026;52.600;4.694;2023-05-12T11:06:03;102009.38;;;20.63;82.08
62725;BME280;49026;52.600;4.694;2023-05-12T11:08:29;102011.63;;;20.83;82.35
62725;BME280;49026;52.600;4.694;2023-05-12T11:10:56;102004.88;;;21.05;79.92
62725;BME280;49026;52.600;4.694;2023-05-12T11:13:23;101997.63;;;21.07;79.25
62725;BME280;49026;52.600;4.694;2023-05-12T11:15:48;102007.50;;;20.92;76.62
62725;BME280;49026;52.600;4.694;2023-05-12T11:18:21;102003.06;;;21.05;80.49
62725;BME280;49026;52.600;4.694;2023-05-12T11:20:49;102013.13;;;21.15;79.10
62725;BME280;49026;52.600;4.694;2023-05-12T11:23:27;102010.88;;;21.08;78.32
62725;BME280;49026;52.600;4.694;2023-05-12T11:25:54;102011.91;;;21.06;75.16
62725;BME280;49026;52.600;4.694;2023-05-12T11:28:20;102015.59;;;21.18;76.11
62725;BME280;49026;52.600;4.694;2023-05-12T11:30:52;102011.31;;;21.15;76.69
62725;BME280;49026;52.600;4.694;2023-05-12T11:33:23;102004.75;;;21.06;76.47
62725;BME280;49026;52.600;4.694;2023-05-12T11:35:48;102014.94;;;21.14;76.53
62725;BME280;49026;52.600;4.694;2023-05-12T11:38:16;102016.28;;;21.34;74.94
62725;BME280;49026;52.600;4.694;2023-05-12T11:40:41;102017.66;;;21.67;75.13
62725;BME280;49026;52.600;4.694;2023-05-12T11:43:11;102012.53;;;21.90;75.04
62725;BME280;49026;52.600;4.694;2023-05-12T11:45:38;102006.94;;;22.18;74.11
62725;BME280;49026;52.600;4.694;2023-05-12T11:48:12;102006.69;;;22.60;75.29
62725;BME280;49026;52.600;4.694;2023-05-12T11:50:39;102004.16;;;23.07;77.07
62725;BME280;49026;52.600;4.694;2023-05-12T11:53:11;102007.56;;;23.33;77.09
62725;BME280;49026;52.600;4.694;2023-05-12T11:55:46;102004.94;;;23.20;73.72
62725;BME280;49026;52.600;4.694;2023-05-12T11:58:20;101997.63;;;23.11;71.08
62725;BME280;49026;52.600;4.694;2023-05-12T12:00:48;102002.09;;;22.86;69.04
62725;BME280;49026;52.600;4.694;2023-05-12T12:03:14;102007.97;;;22.91;74.23
62725;BME280;49026;52.600;4.694;2023-05-12T12:05:42;102003.63;;;23.02;73.22
62725;BME280;49026;52.600;4.694;2023-05-12T12:08:12;101994.41;;;23.06;71.94
62725;BME280;49026;52.600;4.694;2023-05-12T12:10:42;102014.47;;;22.76;68.71
62725;BME280;49026;52.600;4.694;2023-05-12T12:13:07;102010.56;;;22.56;49.32
62725;BME280;49026;52.600;4.694;2023-05-12T12:15:35;102019.19;;;22.72;66.38
62725;BME280;49026;52.600;4.694;2023-05-12T12:18:01;102022.88;;;22.96;68.06
62725;BME280;49026;52.600;4.694;2023-05-12T12:20:26;102027.13;;;22.98;65.32
62725;BME280;49026;52.600;4.694;2023-05-12T12:22:52;102026.91;;;22.77;64.18
62725;BME280;49026;52.600;4.694;2023-05-12T12:25:20;102025.53;;;22.58;67.01
62725;BME280;49026;52.600;4.694;2023-05-12T12:27:46;102024.47;;;22.61;66.49
62725;BME280;49026;52.600;4.694;2023-05-12T12:30:13;102019.59;;;22.79;68.47
62725;BME280;49026;52.600;4.694;2023-05-12T12:32:40;102014.56;;;22.99;68.91
62725;BME280;49026;52.600;4.694;2023-05-12T12:35:06;102020.03;;;23.10;68.82
62725;BME280;49026;52.600;4.694;2023-05-12T12:37:34;102018.13;;;22.99;66.19
62725;BME280;49026;52.600;4.694;2023-05-12T12:40:02;102016.75;;;22.93;70.24
62725;BME280;49026;52.600;4.694;2023-05-12T12:42:34;102021.13;;;23.07;66.33
62725;BME280;49026;52.600;4.694;2023-05-12T12:45:03;102025.09;;;23.26;65.40
62725;BME280;49026;52.600;4.694;2023-05-12T12:47:29;102018.25;;;23.57;65.85
62725;BME280;49026;52.600;4.694;2023-05-12T12:49:54;102028.59;;;23.86;65.74
62725;BME280;49026;52.600;4.694;2023-05-12T12:52:19;102019.31;;;23.90;68.97
62725;BME280;49026;52.600;4.694;2023-05-12T12:54:45;102027.31;;;23.79;69.04